createdAt,value
2022-08-12T00:02:02.928Z,101651.00
2022-08-12T00:04:35.967Z,101651.00
2022-08-12T00:07:19.333Z,101650.00
2022-08-12T00:10:02.110Z,101652.00
2022-08-12T00:12:44.941Z,101655.00
2022-08-12T00:15:32.155Z,101652.00
2022-08-12T00:18:15.032Z,101653.00
2022-08-12T00:21:00.775Z,101660.00
2022-08-12T00:23:43.536Z,101663.00
2022-08-12T00:26:29.728Z,101648.00
2022-08-12T00:29:12.449Z,101654.00
2022-08-12T00:31:55.557Z,101656.00
2022-08-12T00:34:38.325Z,101656.00
2022-08-12T00:37:23.692Z,101656.00
2022-08-12T00:40:10.814Z,101660.00
2022-08-12T00:42:43.904Z,101673.00
2022-08-12T00:45:14.307Z,101668.00
2022-08-12T00:47:45.545Z,101667.00
2022-08-12T00:50:20.606Z,101662.00
2022-08-12T00:52:56.038Z,101660.00
2022-08-12T00:55:26.466Z,101662.00
2022-08-12T00:57:56.912Z,101656.00
2022-08-12T01:00:28.840Z,101663.00
2022-08-12T01:02:59.514Z,101652.00
2022-08-12T01:05:42.539Z,101659.00
2022-08-12T01:08:43.086Z,101656.00
2022-08-12T01:11:28.258Z,101650.00
2022-08-12T01:14:02.136Z,101646.00
2022-08-12T01:16:32.732Z,101655.00
2022-08-12T01:19:04.570Z,101655.00
2022-08-12T01:22:19.377Z,101665.00
2022-08-12T01:25:12.917Z,101658.00
2022-08-12T01:27:44.407Z,101648.00
2022-08-12T01:30:16.740Z,101651.00
2022-08-12T01:32:51.401Z,101652.00
2022-08-12T01:35:21.963Z,101654.00
2022-08-12T01:38:02.817Z,101666.00
2022-08-12T01:40:42.518Z,101650.00
2022-08-12T01:43:22.810Z,101662.00
2022-08-12T01:46:14.802Z,101665.00
2022-08-12T01:49:07.620Z,101662.00
2022-08-12T01:52:16.074Z,101659.00
2022-08-12T01:54:39.543Z,101648.00
2022-08-12T01:57:58.670Z,101654.00
2022-08-12T02:00:15.162Z,101645.00
2022-08-12T02:02:49.178Z,101658.00
2022-08-12T02:05:46.690Z,101654.00
2022-08-12T02:08:46.121Z,101649.00
2022-08-12T02:11:24.179Z,101657.00
2022-08-12T02:14:34.556Z,101652.00
2022-08-12T02:17:55.716Z,101650.00
2022-08-12T02:20:35.168Z,101642.00
2022-08-12T02:23:27.232Z,101648.00
2022-08-12T02:26:02.401Z,101650.00
2022-08-12T02:28:33.837Z,101649.00
2022-08-12T02:31:11.163Z,101649.00
2022-08-12T02:33:42.319Z,101652.00
2022-08-12T02:36:13.161Z,101645.00
2022-08-12T02:38:46.212Z,101644.00
2022-08-12T02:41:19.860Z,101645.00
2022-08-12T02:43:54.925Z,101644.00
2022-08-12T02:46:34.529Z,101642.00
2022-08-12T02:49:14.885Z,101638.00
2022-08-12T02:51:47.236Z,101634.00
2022-08-12T02:54:17.876Z,101628.00
2022-08-12T02:56:51.079Z,101628.00
2022-08-12T02:59:26.437Z,101635.00
2022-08-12T03:02:03.897Z,101625.00
2022-08-12T03:04:43.646Z,101631.00
2022-08-12T03:07:21.171Z,101633.00
2022-08-12T03:10:04.848Z,101637.00
2022-08-12T03:12:49.396Z,101641.00
2022-08-12T03:15:24.874Z,101639.00
2022-08-12T03:18:24.741Z,101629.00
2022-08-12T03:20:59.729Z,101639.00
2022-08-12T03:23:32.668Z,101634.00
2022-08-12T03:26:05.832Z,101646.00
2022-08-12T03:28:51.665Z,101632.00
2022-08-12T03:31:25.127Z,101638.00
2022-08-12T03:34:03.502Z,101649.00
2022-08-12T03:36:36.795Z,101633.00
2022-08-12T03:39:36.599Z,101637.00
2022-08-12T03:42:22.643Z,101647.00
2022-08-12T03:45:16.721Z,101641.00
2022-08-12T03:48:07.756Z,101650.00
2022-08-12T03:50:53.558Z,101641.00
2022-08-12T03:53:42.590Z,101640.00
2022-08-12T03:56:25.557Z,101643.00
2022-08-12T03:59:10.955Z,101644.00
2022-08-12T04:01:43.404Z,101648.00
2022-08-12T04:04:16.999Z,101651.00
2022-08-12T04:06:50.146Z,101653.00
2022-08-12T04:09:24.245Z,101649.00
2022-08-12T04:12:07.279Z,101649.00
2022-08-12T04:14:38.724Z,101644.00
2022-08-12T04:17:09.700Z,101655.00
2022-08-12T04:19:40.636Z,101660.00
2022-08-12T04:22:13.705Z,101658.00
2022-08-12T04:24:47.705Z,101665.00
2022-08-12T04:27:21.141Z,101658.00
2022-08-12T04:30:30.099Z,101663.00
2022-08-12T04:32:44.564Z,101658.00
2022-08-12T04:35:16.166Z,101657.00
2022-08-12T04:37:57.947Z,101660.00
2022-08-12T04:40:33.924Z,101662.00
2022-08-12T04:43:04.938Z,101660.00
2022-08-12T04:45:37.715Z,101663.00
2022-08-12T04:48:09.122Z,101657.00
2022-08-12T04:50:39.426Z,101647.00
2022-08-12T04:53:13.234Z,101653.00
2022-08-12T04:55:46.851Z,101652.00
2022-08-12T04:58:29.312Z,101659.00
2022-08-12T05:01:01.220Z,101655.00
2022-08-12T05:03:46.664Z,101663.00
2022-08-12T05:06:27.102Z,101662.00
2022-08-12T05:09:02.149Z,101658.00
2022-08-12T05:11:54.102Z,101657.00
2022-08-12T05:14:25.302Z,101660.00
2022-08-12T05:16:55.666Z,101655.00
2022-08-12T05:19:26.933Z,101659.00
2022-08-12T05:21:57.329Z,101659.00
2022-08-12T05:24:30.566Z,101665.00
2022-08-12T05:27:00.964Z,101663.00
2022-08-12T05:30:06.468Z,101652.00
2022-08-12T05:32:26.337Z,101666.00
2022-08-12T05:34:56.743Z,101657.00
2022-08-12T05:37:27.332Z,101666.00
2022-08-12T05:40:00.725Z,101664.00
2022-08-12T05:42:41.140Z,101666.00
2022-08-12T05:45:13.847Z,101667.00
2022-08-12T05:47:54.010Z,101675.00
2022-08-12T05:50:25.878Z,101667.00
2022-08-12T05:52:57.313Z,101667.00
2022-08-12T05:55:31.721Z,101673.00
2022-08-12T05:58:03.257Z,101680.00
2022-08-12T06:00:34.654Z,101675.00
2022-08-12T06:03:07.161Z,101674.00
2022-08-12T06:05:54.299Z,101673.00
2022-08-12T06:08:26.669Z,101670.00
2022-08-12T06:11:01.996Z,101676.00
2022-08-12T06:13:52.851Z,101680.00
2022-08-12T06:16:27.496Z,101683.00
2022-08-12T06:18:57.967Z,101687.00
2022-08-12T06:21:28.826Z,101685.00
2022-08-12T06:23:59.193Z,101675.00
2022-08-12T06:26:34.701Z,101681.00
2022-08-12T06:29:05.346Z,101679.00
2022-08-12T06:31:35.685Z,101683.00
2022-08-12T06:35:25.702Z,101671.00
2022-08-12T06:36:56.550Z,101676.00
2022-08-12T06:39:27.139Z,101678.00
2022-08-12T06:42:42.234Z,101682.00
2022-08-12T06:45:02.810Z,101681.00
2022-08-12T06:47:33.240Z,101672.00
2022-08-12T06:50:04.107Z,101681.00
2022-08-12T06:52:34.455Z,101682.00
2022-08-12T06:55:04.831Z,101684.00
2022-08-12T06:58:05.663Z,101677.00
2022-08-12T07:00:39.268Z,101677.00
2022-08-12T07:03:22.741Z,101676.00
2022-08-12T07:05:53.967Z,101672.00
2022-08-12T07:08:26.917Z,101680.00
2022-08-12T07:11:00.300Z,101679.00
2022-08-12T07:13:36.085Z,101682.00
2022-08-12T07:16:27.084Z,101682.00
2022-08-12T07:18:59.198Z,101682.00
2022-08-12T07:22:00.035Z,101685.00
2022-08-12T07:24:24.565Z,101676.00
2022-08-12T07:26:55.876Z,101676.00
2022-08-12T07:30:02.578Z,101681.00
2022-08-12T07:32:23.827Z,101682.00
2022-08-12T07:34:54.820Z,101688.00
2022-08-12T07:37:25.200Z,101692.00
2022-08-12T07:40:00.330Z,101697.00
2022-08-12T07:42:32.462Z,101691.00
2022-08-12T07:45:07.516Z,101695.00
2022-08-12T07:47:38.115Z,101700.00
2022-08-12T07:50:10.904Z,101695.00
2022-08-12T07:52:44.059Z,101699.00
2022-08-12T07:55:19.318Z,101687.00
2022-08-12T07:57:58.055Z,101688.00
2022-08-12T08:00:34.420Z,101686.00
2022-08-12T08:03:05.182Z,101691.00
2022-08-12T08:05:40.201Z,101691.00
2022-08-12T08:08:18.196Z,101690.00
2022-08-12T08:10:49.240Z,101693.00
2022-08-12T08:13:17.647Z,101678.00
2022-08-12T08:16:03.535Z,101680.00
2022-08-12T08:18:34.362Z,101680.00
2022-08-12T08:21:04.765Z,101687.00
2022-08-12T08:23:56.329Z,101683.00
2022-08-12T08:26:28.567Z,101684.00
2022-08-12T08:28:59.760Z,101685.00
2022-08-12T08:31:32.853Z,101683.00
2022-08-12T08:34:27.725Z,101685.00
2022-08-12T08:36:54.280Z,101680.00
2022-08-12T08:39:28.133Z,101684.00
2022-08-12T08:42:19.188Z,101682.00
2022-08-12T08:44:58.134Z,101680.00
2022-08-12T08:47:31.516Z,101673.00
2022-08-12T08:50:03.378Z,101668.00
2022-08-12T08:52:40.276Z,101679.00
2022-08-12T08:55:14.145Z,101678.00
2022-08-12T08:57:47.792Z,101671.00
2022-08-12T09:00:19.932Z,101674.00
2022-08-12T09:02:58.570Z,101667.00
2022-08-12T09:06:01.686Z,101666.00
2022-08-12T09:12:11.504Z,101680.00
2022-08-12T09:14:31.405Z,101678.00
2022-08-12T09:17:03.093Z,101667.00
2022-08-12T09:19:37.341Z,101679.00
2022-08-12T09:22:11.060Z,101675.00
2022-08-12T09:24:48.864Z,101667.00
2022-08-12T09:27:23.416Z,101666.00
2022-08-12T09:30:16.237Z,101674.00
2022-08-12T09:33:04.520Z,101667.00
2022-08-12T09:35:44.474Z,101666.00
2022-08-12T09:38:28.393Z,101669.00
2022-08-12T09:42:34.137Z,101662.00
2022-08-12T09:44:05.521Z,101660.00
2022-08-12T09:46:36.637Z,101656.00
2022-08-12T09:49:16.244Z,101647.00
2022-08-12T09:51:50.494Z,101653.00
2022-08-12T09:54:33.597Z,101651.00
2022-08-12T09:58:46.158Z,101643.00
2022-08-12T10:00:15.194Z,101640.00
2022-08-12T10:03:05.961Z,101623.00
2022-08-12T10:06:19.559Z,101628.00
2022-08-12T10:08:39.164Z,101624.00
2022-08-12T10:11:23.274Z,101622.00
2022-08-12T10:13:57.308Z,101621.00
2022-08-12T10:16:38.739Z,101608.00
2022-08-12T10:19:17.199Z,101614.00
2022-08-12T10:21:48.508Z,101612.00
2022-08-12T10:24:30.198Z,101605.00
2022-08-12T10:27:14.372Z,101607.00
2022-08-12T10:30:03.017Z,101612.00
2022-08-12T10:32:44.312Z,101600.00
2022-08-12T10:35:18.506Z,101595.00
2022-08-12T10:38:38.403Z,101598.00
2022-08-12T10:41:04.054Z,101588.00
2022-08-12T10:43:54.527Z,101593.00
2022-08-12T10:46:31.165Z,101592.00
2022-08-12T10:49:06.840Z,101591.00
2022-08-12T10:52:32.601Z,101589.00
2022-08-12T10:54:49.300Z,101585.00
2022-08-12T10:58:15.560Z,101592.00
2022-08-12T11:00:33.788Z,101582.00
2022-08-12T11:04:19.382Z,101575.00
2022-08-12T11:07:06.015Z,101581.00
2022-08-12T11:08:51.276Z,101580.00
2022-08-12T11:12:08.492Z,101578.00
2022-08-12T11:14:49.288Z,101579.00
2022-08-12T11:17:43.515Z,101581.00
2022-08-12T11:20:14.909Z,101566.00
2022-08-12T11:22:49.406Z,101572.00
2022-08-12T11:25:55.677Z,101573.00
2022-08-12T11:28:33.498Z,101567.00
2022-08-12T11:31:12.326Z,101564.00
2022-08-12T11:34:05.327Z,101555.00
2022-08-12T11:36:39.118Z,101566.00
2022-08-12T11:39:12.418Z,101556.00
2022-08-12T11:41:43.218Z,101558.00
2022-08-12T11:44:37.098Z,101556.00
2022-08-12T11:47:10.831Z,101551.00
2022-08-12T11:49:41.372Z,101557.00
2022-08-12T11:52:51.375Z,101543.00
2022-08-12T11:55:14.805Z,101545.00
2022-08-12T11:58:17.295Z,101543.00
2022-08-12T12:03:44.241Z,101535.00
2022-08-12T12:06:18.072Z,101537.00
2022-08-12T12:08:52.966Z,101536.00
2022-08-12T12:11:25.335Z,101531.00
2022-08-12T12:14:06.630Z,101534.00
2022-08-12T12:16:40.033Z,101540.00
2022-08-12T12:19:15.206Z,101537.00
2022-08-12T12:21:47.508Z,101530.00
2022-08-12T12:24:22.467Z,101520.00
2022-08-12T12:26:59.530Z,101525.00
2022-08-12T12:30:17.928Z,101525.00
2022-08-12T12:32:28.829Z,101530.00
2022-08-12T12:35:13.890Z,101529.00
2022-08-12T12:38:05.539Z,101523.00
2022-08-12T12:40:46.197Z,101530.00
2022-08-12T12:43:29.081Z,101522.00
2022-08-12T12:46:12.465Z,101522.00
2022-08-12T12:48:44.678Z,101523.00
2022-08-12T12:51:48.142Z,101521.00
2022-08-12T12:54:11.461Z,101513.00
2022-08-12T12:56:47.976Z,101527.00
2022-08-12T12:59:54.996Z,101520.00
2022-08-12T13:02:11.214Z,101513.00
2022-08-12T13:04:41.936Z,101522.00
2022-08-12T13:07:19.202Z,101511.00
2022-08-12T13:09:49.972Z,101509.00
2022-08-12T13:12:20.716Z,101504.00
2022-08-12T13:14:51.674Z,101494.00
2022-08-12T13:17:22.141Z,101502.00
2022-08-12T13:19:55.627Z,101507.00
2022-08-12T13:22:30.378Z,101512.00
2022-08-12T13:25:01.966Z,101501.00
2022-08-12T13:27:42.604Z,101501.00
2022-08-12T13:30:24.803Z,101496.00
2022-08-12T13:32:59.020Z,101490.00
2022-08-12T13:36:02.912Z,101494.00
2022-08-12T13:38:34.244Z,101494.00
2022-08-12T13:41:11.752Z,101498.00
2022-08-12T13:43:42.444Z,101502.00
2022-08-12T13:46:17.817Z,101486.00
2022-08-12T13:48:48.697Z,101490.00
2022-08-12T13:51:24.205Z,101499.00
2022-08-12T13:54:04.158Z,101491.00
2022-08-12T13:56:38.543Z,101495.00
2022-08-12T13:59:11.557Z,101487.00
2022-08-12T14:01:42.397Z,101478.00
2022-08-12T14:04:13.395Z,101477.00
2022-08-12T14:06:44.942Z,101477.00
2022-08-12T14:09:19.980Z,101482.00
2022-08-12T14:11:59.454Z,101473.00
2022-08-12T14:14:35.764Z,101464.00
2022-08-12T14:17:10.417Z,101471.00
2022-08-12T14:20:01.378Z,101479.00
2022-08-12T14:22:32.195Z,101481.00
2022-08-12T14:25:06.297Z,101477.00
2022-08-12T14:28:03.732Z,101478.00
2022-08-12T14:30:29.375Z,101473.00
2022-08-12T14:33:03.038Z,101466.00
2022-08-12T14:35:41.363Z,101474.00
2022-08-12T14:38:26.156Z,101465.00
2022-08-12T14:41:01.841Z,101459.00
2022-08-12T14:43:58.939Z,101462.00
2022-08-12T14:46:28.016Z,101467.00
2022-08-12T14:48:58.523Z,101461.00
2022-08-12T14:52:44.083Z,101453.00
2022-08-12T14:57:44.897Z,101431.00
2022-08-12T15:00:29.881Z,101436.00
2022-08-12T15:03:00.292Z,101437.00
2022-08-12T15:06:06.122Z,101436.00
2022-08-12T15:08:33.575Z,101434.00
2022-08-12T15:11:05.664Z,101428.00
2022-08-12T15:13:45.723Z,101430.00
2022-08-12T15:16:18.667Z,101427.00
2022-08-12T15:18:55.030Z,101435.00
2022-08-12T15:22:36.795Z,101424.00
2022-08-12T15:24:20.532Z,101429.00
2022-08-12T15:26:51.613Z,101426.00
2022-08-12T15:29:26.417Z,101415.00
2022-08-12T15:32:02.002Z,101415.00
2022-08-12T15:34:38.961Z,101423.00
2022-08-12T15:37:09.368Z,101417.00
2022-08-12T15:39:39.852Z,101418.00
2022-08-12T15:42:30.038Z,101417.00
2022-08-12T15:45:03.422Z,101417.00
2022-08-12T15:47:49.541Z,101416.00
2022-08-12T15:50:26.371Z,101421.00
2022-08-12T15:52:58.844Z,101420.00
2022-08-12T15:55:46.235Z,101416.00
2022-08-12T15:58:17.495Z,101416.00
2022-08-12T16:00:52.789Z,101417.00
2022-08-12T16:03:45.342Z,101408.00
2022-08-12T16:06:36.289Z,101410.00
2022-08-12T16:09:21.618Z,101417.00
2022-08-12T16:11:52.339Z,101418.00
2022-08-12T16:14:22.696Z,101423.00
2022-08-12T16:16:57.901Z,101411.00
2022-08-12T16:20:04.068Z,101414.00
2022-08-12T16:22:21.486Z,101410.00
2022-08-12T16:24:56.215Z,101412.00
2022-08-12T16:27:29.813Z,101406.00
2022-08-12T16:30:10.913Z,101405.00
2022-08-12T16:32:46.466Z,101405.00
2022-08-12T16:35:24.286Z,101399.00
2022-08-12T16:38:28.234Z,101407.00
2022-08-12T16:40:54.434Z,101402.00
2022-08-12T16:43:28.153Z,101399.00
2022-08-12T16:46:05.661Z,101396.00
2022-08-12T16:48:55.860Z,101400.00
2022-08-12T16:51:26.827Z,101394.00
2022-08-12T16:53:57.436Z,101388.00
2022-08-12T16:56:31.988Z,101391.00
2022-08-12T16:59:02.851Z,101388.00
2022-08-12T17:01:46.456Z,101383.00
2022-08-12T17:04:20.342Z,101381.00
2022-08-12T17:06:55.083Z,101377.00
2022-08-12T17:09:26.310Z,101378.00
2022-08-12T17:12:11.617Z,101373.00
2022-08-12T17:14:42.439Z,101375.00
2022-08-12T17:17:26.345Z,101369.00
2022-08-12T17:20:34.599Z,101372.00
2022-08-12T17:23:09.769Z,101362.00
2022-08-12T17:25:48.328Z,101366.00
2022-08-12T17:28:20.331Z,101352.00
2022-08-12T17:30:59.573Z,101356.00
2022-08-12T17:33:33.275Z,101350.00
2022-08-12T17:36:10.639Z,101344.00
2022-08-12T17:38:41.709Z,101352.00
2022-08-12T17:41:22.732Z,101352.00
2022-08-12T17:43:58.307Z,101352.00
2022-08-12T17:46:33.570Z,101357.00
2022-08-12T17:49:06.533Z,101348.00
2022-08-12T17:52:02.217Z,101349.00
2022-08-12T17:54:34.677Z,101357.00
2022-08-12T17:57:16.142Z,101355.00
2022-08-12T17:59:49.540Z,101361.00
2022-08-12T18:02:29.772Z,101351.00
2022-08-12T18:05:10.040Z,101358.00
2022-08-12T18:07:44.906Z,101349.00
2022-08-12T18:10:42.996Z,101355.00
2022-08-12T18:13:12.911Z,101347.00
2022-08-12T18:16:06.740Z,101348.00
2022-08-12T18:18:39.334Z,101346.00
2022-08-12T18:21:12.379Z,101351.00
2022-08-12T18:23:53.603Z,101350.00
2022-08-12T18:26:27.265Z,101360.00
2022-08-12T18:28:59.015Z,101356.00
2022-08-12T18:31:44.530Z,101358.00
2022-08-12T18:34:24.725Z,101359.00
2022-08-12T18:36:59.749Z,101360.00
2022-08-12T18:40:06.079Z,101361.00
2022-08-12T18:42:36.475Z,101369.00
2022-08-12T18:45:12.109Z,101365.00
2022-08-12T18:47:49.871Z,101367.00
2022-08-12T18:50:24.755Z,101365.00
2022-08-12T18:52:56.875Z,101368.00
2022-08-12T18:55:37.441Z,101365.00
2022-08-12T18:58:10.103Z,101372.00
2022-08-12T19:00:43.296Z,101378.00
2022-08-12T19:03:38.616Z,101378.00
2022-08-12T19:06:09.142Z,101380.00
2022-08-12T19:08:49.495Z,101385.00
2022-08-12T19:11:36.191Z,101391.00
2022-08-12T19:14:20.697Z,101386.00
2022-08-12T19:16:52.757Z,101382.00
2022-08-12T19:19:23.220Z,101388.00
2022-08-12T19:21:57.004Z,101390.00
2022-08-12T19:24:41.799Z,101389.00
2022-08-12T19:27:15.957Z,101394.00
2022-08-12T19:30:06.535Z,101387.00
2022-08-12T19:32:37.939Z,101391.00
2022-08-12T19:38:07.286Z,101389.00
2022-08-12T19:40:39.558Z,101388.00
2022-08-12T19:43:20.961Z,101386.00
2022-08-12T19:45:56.659Z,101384.00
2022-08-12T19:48:32.635Z,101379.00
2022-08-12T19:51:09.293Z,101377.00
2022-08-12T19:53:58.078Z,101371.00
2022-08-12T19:56:30.311Z,101382.00
2022-08-12T19:59:18.679Z,101389.00
2022-08-12T20:02:02.871Z,101388.00
2022-08-12T20:04:37.731Z,101388.00
2022-08-12T20:07:12.605Z,101387.00
2022-08-12T20:09:56.929Z,101394.00
2022-08-12T20:12:32.619Z,101389.00
2022-08-12T20:15:11.233Z,101390.00
2022-08-12T20:17:50.738Z,101397.00
2022-08-12T20:20:27.794Z,101390.00
2022-08-12T20:22:58.910Z,101393.00
2022-08-12T20:25:52.682Z,101398.00
2022-08-12T20:28:21.652Z,101387.00
2022-08-12T20:31:00.011Z,101396.00
2022-08-12T20:33:50.200Z,101397.00
2022-08-12T20:36:41.552Z,101394.00
2022-08-12T20:39:33.955Z,101402.00
2022-08-12T20:42:07.823Z,101387.00
2022-08-12T20:44:40.594Z,101392.00
2022-08-12T20:47:19.627Z,101389.00
2022-08-12T20:49:54.821Z,101383.00
2022-08-12T20:52:30.220Z,101393.00
2022-08-12T20:55:00.767Z,101397.00
2022-08-12T20:57:38.272Z,101394.00
2022-08-12T21:00:28.469Z,101385.00
2022-08-12T21:03:21.649Z,101393.00
2022-08-12T21:06:13.047Z,101381.00
2022-08-12T21:08:44.374Z,101378.00
2022-08-12T21:11:15.067Z,101389.00
2022-08-12T21:13:47.216Z,101388.00
2022-08-12T21:16:31.497Z,101393.00
2022-08-12T21:19:11.820Z,101392.00
2022-08-12T21:21:58.845Z,101397.00
2022-08-12T21:24:32.301Z,101394.00
2022-08-12T21:27:07.379Z,101401.00
2022-08-12T21:29:40.100Z,101400.00
2022-08-12T21:32:36.839Z,101413.00
2022-08-12T21:35:19.042Z,101417.00
2022-08-12T21:37:53.314Z,101406.00
2022-08-12T21:40:37.419Z,101402.00
2022-08-12T21:43:15.953Z,101410.00
2022-08-12T21:46:00.909Z,101409.00
2022-08-12T21:48:32.015Z,101415.00
2022-08-12T21:51:22.588Z,101410.00
2022-08-12T21:54:07.507Z,101411.00
2022-08-12T21:56:41.168Z,101401.00
2022-08-12T21:59:14.541Z,101402.00
2022-08-12T22:01:48.994Z,101407.00
2022-08-12T22:04:33.522Z,101407.00
2022-08-12T22:07:07.971Z,101401.00
2022-08-12T22:09:43.235Z,101401.00
2022-08-12T22:12:26.832Z,101406.00
2022-08-12T22:14:57.606Z,101411.00
2022-08-12T22:17:49.907Z,101409.00
2022-08-12T22:20:29.442Z,101409.00
2022-08-12T22:23:05.405Z,101415.00
2022-08-12T22:25:40.058Z,101411.00
2022-08-12T22:28:24.639Z,101414.00
2022-08-12T22:31:07.584Z,101411.00
2022-08-12T22:33:53.907Z,101407.00
2022-08-12T22:36:29.320Z,101404.00
2022-08-12T22:39:02.732Z,101409.00
2022-08-12T22:41:45.746Z,101401.00
2022-08-12T22:44:28.450Z,101408.00
2022-08-12T22:47:12.218Z,101405.00
2022-08-12T22:49:53.611Z,101411.00
2022-08-12T22:52:30.748Z,101408.00
2022-08-12T22:55:06.383Z,101397.00
2022-08-12T22:57:49.737Z,101399.00
2022-08-12T23:00:27.916Z,101402.00
2022-08-12T23:03:02.775Z,101407.00
2022-08-12T23:06:09.624Z,101409.00
2022-08-12T23:08:32.068Z,101411.00
2022-08-12T23:11:08.505Z,101402.00
2022-08-12T23:13:57.173Z,101407.00
2022-08-12T23:16:33.383Z,101407.00
2022-08-12T23:19:11.071Z,101397.00
2022-08-12T23:22:05.858Z,101398.00
2022-08-12T23:24:56.093Z,101398.00
2022-08-12T23:27:50.255Z,101391.00
2022-08-12T23:30:25.079Z,101404.00
2022-08-12T23:33:01.919Z,101391.00
2022-08-12T23:35:45.844Z,101399.00
2022-08-12T23:38:30.888Z,101404.00
2022-08-12T23:41:03.899Z,101392.00
2022-08-12T23:43:43.407Z,101395.00
2022-08-12T23:46:22.605Z,101400.00
2022-08-12T23:49:01.025Z,101394.00
2022-08-12T23:51:32.294Z,101398.00
2022-08-12T23:54:10.160Z,101387.00
2022-08-12T23:56:48.808Z,101397.00
2022-08-12T23:59:22.885Z,101396.00
